createdAt,value
2022-08-06T00:00:02.941Z,0.00
2022-08-06T00:00:28.254Z,0.00
2022-08-06T00:01:28.329Z,0.00
2022-08-06T00:02:31.046Z,0.00
2022-08-06T00:03:28.207Z,0.00
2022-08-06T00:04:28.210Z,0.00
2022-08-06T00:05:29.955Z,0.00
2022-08-06T00:06:30.144Z,0.00
2022-08-06T00:07:35.751Z,0.00
2022-08-06T00:08:28.161Z,0.00
2022-08-06T00:09:28.142Z,0.00
2022-08-06T00:10:29.605Z,0.00
2022-08-06T00:11:29.079Z,0.00
2022-08-06T00:12:29.672Z,0.00
2022-08-06T00:13:28.132Z,0.00
2022-08-06T00:14:28.116Z,0.00
2022-08-06T00:16:06.842Z,0.00
2022-08-06T00:16:30.919Z,0.00
2022-08-06T00:17:31.661Z,0.00
2022-08-06T00:18:28.062Z,0.00
2022-08-06T00:19:28.074Z,0.00
2022-08-06T00:20:31.435Z,0.00
2022-08-06T00:21:41.189Z,0.00
2022-08-06T00:22:28.972Z,0.00
2022-08-06T00:23:27.981Z,0.00
2022-08-06T00:24:28.936Z,0.00
2022-08-06T00:25:28.262Z,0.00
2022-08-06T00:26:29.043Z,0.00
2022-08-06T00:27:29.468Z,0.00
2022-08-06T00:28:31.906Z,0.00
2022-08-06T00:29:32.350Z,0.00
2022-08-06T00:30:27.917Z,0.00
2022-08-06T00:31:30.177Z,0.00
2022-08-06T00:32:27.888Z,0.00
2022-08-06T00:33:28.794Z,0.00
2022-08-06T00:34:27.858Z,0.00
2022-08-06T00:35:28.788Z,0.00
2022-08-06T00:36:28.588Z,0.00
2022-08-06T00:37:28.821Z,0.00
2022-08-06T00:38:28.924Z,0.00
2022-08-06T00:39:27.907Z,0.00
2022-08-06T00:40:29.022Z,0.00
2022-08-06T00:41:42.453Z,0.00
2022-08-06T00:42:27.944Z,0.00
2022-08-06T00:43:30.806Z,0.00
2022-08-06T00:44:31.256Z,0.00
2022-08-06T00:45:27.743Z,0.00
2022-08-06T00:46:27.720Z,0.00
2022-08-06T00:48:01.072Z,0.00
2022-08-06T00:48:37.112Z,0.00
2022-08-06T00:49:48.801Z,0.00
2022-08-06T00:50:27.683Z,0.00
2022-08-06T00:51:43.069Z,0.00
2022-08-06T00:52:27.830Z,0.00
2022-08-06T00:53:27.637Z,0.00
2022-08-06T00:54:35.411Z,0.00
2022-08-06T00:55:31.423Z,0.00
2022-08-06T00:56:29.348Z,0.00
2022-08-06T00:57:30.247Z,0.00
2022-08-06T00:58:27.587Z,0.00
2022-08-06T00:59:27.567Z,0.00
2022-08-06T01:00:29.749Z,0.00
2022-08-06T01:01:27.685Z,0.00
2022-08-06T01:02:27.903Z,0.00
2022-08-06T01:03:41.290Z,0.00
2022-08-06T01:04:28.079Z,0.00
2022-08-06T01:06:04.116Z,0.00
2022-08-06T01:06:58.824Z,0.00
2022-08-06T01:07:51.181Z,0.00
2022-08-06T01:08:27.476Z,0.00
2022-08-06T01:09:31.638Z,0.00
2022-08-06T01:10:31.065Z,0.00
2022-08-06T01:11:27.452Z,0.00
2022-08-06T01:12:32.000Z,0.00
2022-08-06T01:14:01.992Z,0.00
2022-08-06T01:14:38.449Z,0.00
2022-08-06T01:16:07.636Z,0.00
2022-08-06T01:16:29.561Z,0.00
2022-08-06T01:17:27.652Z,0.00
2022-08-06T01:18:27.413Z,0.00
2022-08-06T01:19:50.372Z,0.00
2022-08-06T01:21:56.517Z,0.00
2022-08-06T01:22:31.628Z,0.00
2022-08-06T01:22:48.394Z,0.00
2022-08-06T01:23:27.299Z,0.00
2022-08-06T01:24:27.322Z,0.00
2022-08-06T01:25:45.911Z,0.00
2022-08-06T01:26:27.264Z,0.00
2022-08-06T01:27:34.445Z,0.00
2022-08-06T01:28:29.338Z,0.00
2022-08-06T01:29:36.146Z,0.00
2022-08-06T01:30:28.418Z,0.00
2022-08-06T01:31:27.212Z,0.00
2022-08-06T01:32:27.697Z,0.00
2022-08-06T01:33:30.657Z,0.00
2022-08-06T01:34:31.681Z,0.00
2022-08-06T01:35:47.760Z,0.00
2022-08-06T01:36:28.296Z,0.00
2022-08-06T01:37:27.163Z,0.00
2022-08-06T01:38:27.138Z,0.00
2022-08-06T01:39:53.642Z,0.00
2022-08-06T01:40:27.154Z,0.00
2022-08-06T01:41:27.091Z,0.00
2022-08-06T01:42:35.571Z,0.00
2022-08-06T01:44:06.776Z,0.00
2022-08-06T01:44:27.053Z,0.00
2022-08-06T01:45:42.639Z,0.00
2022-08-06T01:46:27.360Z,0.00
2022-08-06T01:47:27.038Z,0.00
2022-08-06T01:48:28.675Z,0.00
2022-08-06T01:50:00.927Z,0.00
2022-08-06T01:50:27.836Z,0.00
2022-08-06T01:52:13.423Z,0.00
2022-08-06T01:52:30.002Z,0.00
2022-08-06T01:53:47.145Z,0.00
2022-08-06T01:54:27.035Z,0.00
2022-08-06T01:55:26.935Z,0.00
2022-08-06T01:56:36.322Z,0.00
2022-08-06T01:57:32.722Z,0.00
2022-08-06T01:58:30.171Z,0.00
2022-08-06T01:59:26.878Z,0.00
2022-08-06T02:00:29.601Z,0.00
2022-08-06T02:01:26.922Z,0.00
2022-08-06T02:02:28.822Z,0.00
2022-08-06T02:03:27.121Z,0.00
2022-08-06T02:04:26.837Z,0.00
2022-08-06T02:05:31.808Z,0.00
2022-08-06T02:06:29.645Z,0.00
2022-08-06T02:08:36.713Z,0.00
2022-08-06T02:08:45.048Z,0.00
2022-08-06T02:09:33.992Z,0.00
2022-08-06T02:10:26.791Z,0.00
2022-08-06T02:12:03.338Z,0.00
2022-08-06T02:12:26.943Z,0.00
2022-08-06T02:13:26.724Z,0.00
2022-08-06T02:14:29.795Z,0.00
2022-08-06T02:15:56.459Z,0.00
2022-08-06T02:16:27.339Z,0.00
2022-08-06T02:18:04.247Z,0.00
2022-08-06T02:18:35.190Z,0.00
2022-08-06T02:19:30.432Z,0.00
2022-08-06T02:20:36.491Z,0.00
2022-08-06T02:21:32.481Z,0.00
2022-08-06T02:22:27.401Z,0.00
2022-08-06T02:23:33.104Z,0.00
2022-08-06T02:24:26.628Z,0.00
2022-08-06T02:25:30.788Z,0.00
2022-08-06T02:26:26.582Z,0.00
2022-08-06T02:27:43.639Z,0.00
2022-08-06T02:28:26.569Z,0.00
2022-08-06T02:29:26.536Z,0.00
2022-08-06T02:30:32.208Z,0.00
2022-08-06T02:31:26.518Z,0.00
2022-08-06T02:32:26.725Z,0.00
2022-08-06T02:34:01.164Z,0.00
2022-08-06T02:34:27.455Z,0.00
2022-08-06T02:35:26.504Z,0.00
2022-08-06T02:36:27.589Z,0.00
2022-08-06T02:38:01.170Z,0.00
2022-08-06T02:38:29.349Z,0.00
2022-08-06T02:39:29.907Z,0.00
2022-08-06T02:40:26.452Z,0.00
2022-08-06T02:41:26.392Z,0.00
2022-08-06T02:42:28.958Z,0.00
2022-08-06T02:43:26.373Z,0.00
2022-08-06T02:44:26.995Z,0.00
2022-08-06T02:45:26.363Z,0.00
2022-08-06T02:46:27.148Z,0.00
2022-08-06T02:47:36.104Z,0.00
2022-08-06T02:48:31.857Z,0.00
2022-08-06T02:49:26.316Z,0.00
2022-08-06T02:50:26.315Z,0.00
2022-08-06T02:52:11.936Z,0.00
2022-08-06T02:52:37.097Z,0.00
2022-08-06T02:53:26.263Z,0.00
2022-08-06T02:54:26.305Z,0.00
2022-08-06T02:55:29.539Z,0.00
2022-08-06T02:56:27.938Z,0.00
2022-08-06T02:57:26.257Z,0.00
2022-08-06T02:58:29.417Z,0.00
2022-08-06T02:59:26.199Z,0.00
2022-08-06T03:00:29.487Z,0.00
2022-08-06T03:01:26.260Z,0.00
2022-08-06T03:02:26.542Z,0.00
2022-08-06T03:03:35.199Z,0.00
2022-08-06T03:04:27.220Z,0.00
2022-08-06T03:05:54.781Z,0.00
2022-08-06T03:06:26.843Z,0.00
2022-08-06T03:07:29.455Z,0.00
2022-08-06T03:08:26.463Z,0.00
2022-08-06T03:09:26.071Z,0.00
2022-08-06T03:10:30.380Z,0.00
2022-08-06T03:11:26.054Z,0.00
2022-08-06T03:12:29.836Z,0.00
2022-08-06T03:13:29.237Z,0.00
2022-08-06T03:15:05.177Z,0.00
2022-08-06T03:15:57.644Z,0.00
2022-08-06T03:16:27.015Z,0.00
2022-08-06T03:17:25.986Z,0.00
2022-08-06T03:18:26.052Z,0.00
2022-08-06T03:19:54.633Z,0.00
2022-08-06T03:20:25.958Z,0.00
2022-08-06T03:21:25.970Z,0.00
2022-08-06T03:22:35.302Z,0.00
2022-08-06T03:23:26.935Z,0.00
2022-08-06T03:24:26.504Z,0.00
2022-08-06T03:25:25.896Z,0.00
2022-08-06T03:26:25.909Z,0.00
2022-08-06T03:27:25.894Z,0.00
2022-08-06T03:28:25.873Z,0.00
2022-08-06T03:29:25.843Z,0.00
2022-08-06T03:30:32.915Z,0.00
2022-08-06T03:31:25.846Z,0.00
2022-08-06T03:32:51.148Z,0.00
2022-08-06T03:33:54.164Z,0.00
2022-08-06T03:34:25.799Z,0.00
2022-08-06T03:35:41.326Z,0.00
2022-08-06T03:36:28.740Z,0.00
2022-08-06T03:37:45.397Z,0.00
2022-08-06T03:38:28.139Z,0.00
2022-08-06T03:39:25.835Z,0.00
2022-08-06T03:40:25.719Z,0.00
2022-08-06T03:41:29.364Z,0.00
2022-08-06T03:42:33.010Z,0.00
2022-08-06T03:43:28.400Z,0.00
2022-08-06T03:44:25.676Z,5.62
2022-08-06T03:45:45.212Z,5.62
2022-08-06T03:46:26.400Z,5.62
2022-08-06T03:47:30.846Z,5.62
2022-08-06T03:48:36.232Z,5.62
2022-08-06T03:49:26.499Z,5.62
2022-08-06T03:50:25.628Z,5.62
2022-08-06T03:51:50.602Z,11.25
2022-08-06T03:52:25.656Z,11.25
2022-08-06T03:53:25.583Z,11.25
2022-08-06T03:54:28.021Z,11.25
2022-08-06T03:55:25.568Z,16.88
2022-08-06T03:56:29.899Z,16.88
2022-08-06T03:57:29.662Z,16.88
2022-08-06T03:58:28.516Z,22.50
2022-08-06T03:59:25.838Z,22.50
2022-08-06T04:00:28.373Z,22.50
2022-08-06T04:01:26.041Z,22.50
2022-08-06T04:02:37.329Z,28.12
2022-08-06T04:03:25.523Z,28.12
2022-08-06T04:04:27.742Z,28.12
2022-08-06T04:05:25.902Z,33.75
2022-08-06T04:06:27.570Z,33.75
2022-08-06T04:07:25.697Z,33.75
2022-08-06T04:08:25.404Z,33.75
2022-08-06T04:09:40.513Z,39.38
2022-08-06T04:10:33.720Z,39.38
2022-08-06T04:12:14.038Z,45.00
2022-08-06T04:13:08.634Z,45.00
2022-08-06T04:14:05.511Z,50.62
2022-08-06T04:14:28.095Z,50.62
2022-08-06T04:15:25.535Z,61.88
2022-08-06T04:16:33.427Z,67.50
2022-08-06T04:17:25.429Z,67.50
2022-08-06T04:18:25.517Z,67.50
2022-08-06T04:19:32.834Z,78.75
2022-08-06T04:20:41.474Z,84.38
2022-08-06T04:23:05.863Z,90.00
2022-08-06T04:23:14.254Z,101.25
2022-08-06T04:23:38.361Z,101.25
2022-08-06T04:24:30.551Z,106.88
2022-08-06T04:25:25.298Z,118.12
2022-08-06T04:26:25.216Z,123.75
2022-08-06T04:27:25.297Z,118.12
2022-08-06T04:28:26.121Z,118.12
2022-08-06T04:29:25.179Z,118.12
2022-08-06T04:30:25.604Z,118.12
2022-08-06T04:32:13.551Z,112.50
2022-08-06T04:32:28.862Z,106.88
2022-08-06T04:33:34.825Z,112.50
2022-08-06T04:34:27.364Z,112.50
2022-08-06T04:36:05.994Z,112.50
2022-08-06T04:36:25.321Z,118.12
2022-08-06T04:37:25.086Z,112.50
2022-08-06T04:38:28.362Z,112.50
2022-08-06T04:39:37.034Z,106.88
2022-08-06T04:40:35.236Z,106.88
2022-08-06T04:41:25.251Z,101.25
2022-08-06T04:42:25.420Z,106.88
2022-08-06T04:43:38.608Z,106.88
2022-08-06T04:44:25.025Z,112.50
2022-08-06T04:46:18.543Z,112.50
2022-08-06T04:46:27.456Z,118.12
2022-08-06T04:47:24.970Z,118.12
2022-08-06T04:48:25.104Z,118.12
2022-08-06T04:49:57.497Z,118.12
2022-08-06T04:50:24.928Z,123.75
2022-08-06T04:52:46.039Z,129.38
2022-08-06T04:52:54.327Z,135.00
2022-08-06T04:53:30.221Z,135.00
2022-08-06T04:54:27.891Z,140.62
2022-08-06T04:55:33.529Z,140.62
2022-08-06T04:56:24.878Z,135.00
2022-08-06T04:57:33.638Z,135.00
2022-08-06T04:58:29.333Z,140.62
2022-08-06T04:59:24.832Z,140.62
2022-08-06T05:00:33.404Z,140.62
2022-08-06T05:01:27.546Z,140.62
2022-08-06T05:02:25.257Z,140.62
2022-08-06T05:04:07.685Z,140.62
2022-08-06T05:04:24.770Z,140.62
2022-08-06T05:05:24.769Z,146.25
2022-08-06T05:06:24.815Z,151.88
2022-08-06T05:07:24.737Z,151.88
2022-08-06T05:08:24.724Z,157.50
2022-08-06T05:09:38.429Z,157.50
2022-08-06T05:10:26.789Z,168.75
2022-08-06T05:11:25.628Z,185.62
2022-08-06T05:12:25.499Z,208.12
2022-08-06T05:13:35.650Z,225.00
2022-08-06T05:14:24.666Z,202.50
2022-08-06T05:15:24.639Z,180.00
2022-08-06T05:16:24.817Z,168.75
2022-08-06T05:17:25.442Z,168.75
2022-08-06T05:19:20.104Z,168.75
2022-08-06T05:19:27.743Z,174.38
2022-08-06T05:20:27.253Z,174.38
2022-08-06T05:22:05.081Z,180.00
2022-08-06T05:22:52.035Z,180.00
2022-08-06T05:23:24.612Z,185.62
2022-08-06T05:24:39.671Z,185.62
2022-08-06T05:25:27.375Z,191.25
2022-08-06T05:26:26.142Z,196.88
2022-08-06T05:27:24.500Z,202.50
2022-08-06T05:28:27.917Z,213.75
2022-08-06T05:29:34.302Z,225.00
2022-08-06T05:30:30.966Z,236.25
2022-08-06T05:31:38.175Z,241.88
2022-08-06T05:32:24.938Z,247.50
2022-08-06T05:33:26.600Z,253.12
2022-08-06T05:34:24.433Z,258.75
2022-08-06T05:35:41.657Z,258.75
2022-08-06T05:36:30.595Z,258.75
2022-08-06T05:38:00.521Z,236.25
2022-08-06T05:38:31.496Z,230.62
2022-08-06T05:39:58.751Z,225.00
2022-08-06T05:40:34.299Z,230.62
2022-08-06T05:41:24.450Z,241.88
2022-08-06T05:42:26.008Z,236.25
2022-08-06T05:43:24.332Z,230.62
2022-08-06T05:44:24.322Z,241.88
2022-08-06T05:45:26.451Z,241.88
2022-08-06T05:46:24.553Z,241.88
2022-08-06T05:47:24.354Z,241.88
2022-08-06T05:48:29.146Z,247.50
2022-08-06T05:49:58.489Z,253.12
2022-08-06T05:50:25.262Z,258.75
2022-08-06T05:51:43.509Z,270.00
2022-08-06T05:52:24.452Z,281.25
2022-08-06T05:54:02.457Z,286.88
2022-08-06T05:54:24.207Z,298.12
2022-08-06T05:55:25.616Z,298.12
2022-08-06T05:56:38.972Z,315.00
2022-08-06T05:57:33.428Z,337.50
2022-08-06T05:58:29.048Z,331.88
2022-08-06T05:59:37.841Z,337.50
2022-08-06T06:00:31.965Z,343.12
2022-08-06T06:01:24.123Z,337.50
2022-08-06T06:02:24.267Z,331.88
2022-08-06T06:03:28.593Z,326.25
2022-08-06T06:04:33.524Z,320.62
2022-08-06T06:06:03.878Z,303.75
2022-08-06T06:06:24.067Z,286.88
2022-08-06T06:08:07.880Z,264.38
2022-08-06T06:08:29.511Z,247.50
2022-08-06T06:09:56.371Z,247.50
2022-08-06T06:10:24.028Z,241.88
2022-08-06T06:11:55.265Z,241.88
2022-08-06T06:12:32.726Z,253.12
2022-08-06T06:13:25.373Z,258.75
2022-08-06T06:14:32.683Z,264.38
2022-08-06T06:16:01.613Z,264.38
2022-08-06T06:16:27.972Z,270.00
2022-08-06T06:17:23.988Z,275.62
2022-08-06T06:18:34.394Z,292.50
2022-08-06T06:19:23.918Z,292.50
2022-08-06T06:20:58.441Z,286.88
2022-08-06T06:21:32.142Z,298.12
2022-08-06T06:22:27.757Z,303.75
2022-08-06T06:23:23.930Z,292.50
2022-08-06T06:24:23.859Z,286.88
2022-08-06T06:25:23.847Z,281.25
2022-08-06T06:26:32.790Z,275.62
2022-08-06T06:27:42.286Z,264.38
2022-08-06T06:28:27.857Z,247.50
2022-08-06T06:30:01.904Z,230.62
2022-08-06T06:30:39.465Z,236.25
2022-08-06T06:32:04.176Z,241.88
2022-08-06T06:32:40.935Z,230.62
2022-08-06T06:33:41.194Z,225.00
2022-08-06T06:34:23.768Z,225.00
2022-08-06T06:35:25.040Z,236.25
2022-08-06T06:36:23.770Z,270.00
2022-08-06T06:37:24.144Z,281.25
2022-08-06T06:38:24.759Z,281.25
2022-08-06T06:39:25.750Z,298.12
2022-08-06T06:40:23.898Z,303.75
2022-08-06T06:41:23.829Z,315.00
2022-08-06T06:42:33.134Z,331.88
2022-08-06T06:43:23.709Z,343.12
2022-08-06T06:45:03.716Z,348.75
2022-08-06T06:46:07.673Z,354.38
2022-08-06T06:46:48.470Z,354.38
2022-08-06T06:47:28.220Z,348.75
2022-08-06T06:48:23.671Z,343.12
2022-08-06T06:49:59.749Z,337.50
2022-08-06T06:50:23.878Z,331.88
2022-08-06T06:51:41.064Z,331.88
2022-08-06T06:52:26.855Z,343.12
2022-08-06T06:53:24.043Z,331.88
2022-08-06T06:54:35.686Z,320.62
2022-08-06T06:55:36.433Z,303.75
2022-08-06T06:56:23.587Z,286.88
2022-08-06T06:57:24.646Z,258.75
2022-08-06T06:58:24.732Z,241.88
2022-08-06T06:59:26.185Z,247.50
2022-08-06T07:00:43.826Z,241.88
2022-08-06T07:01:28.397Z,236.25
2022-08-06T07:02:24.197Z,241.88
2022-08-06T07:03:23.745Z,241.88
2022-08-06T07:04:26.576Z,241.88
2022-08-06T07:06:02.515Z,236.25
2022-08-06T07:06:31.411Z,225.00
2022-08-06T07:07:23.746Z,225.00
2022-08-06T07:08:32.122Z,230.62
2022-08-06T07:09:39.523Z,241.88
2022-08-06T07:10:23.397Z,241.88
2022-08-06T07:11:23.318Z,247.50
2022-08-06T07:12:23.314Z,253.12
2022-08-06T07:13:24.179Z,258.75
2022-08-06T07:14:24.816Z,264.38
2022-08-06T07:15:24.144Z,270.00
2022-08-06T07:16:35.800Z,275.62
2022-08-06T07:17:58.988Z,281.25
2022-08-06T07:18:25.205Z,286.88
2022-08-06T07:19:23.262Z,292.50
2022-08-06T07:20:26.179Z,292.50
2022-08-06T07:21:23.249Z,309.38
2022-08-06T07:22:23.633Z,326.25
2022-08-06T07:24:07.257Z,343.12
2022-08-06T07:24:38.784Z,365.62
2022-08-06T07:25:24.387Z,399.38
2022-08-06T07:26:23.150Z,410.62
2022-08-06T07:27:24.704Z,444.38
2022-08-06T07:28:23.194Z,438.75
2022-08-06T07:29:48.625Z,427.50
2022-08-06T07:30:23.132Z,416.25
2022-08-06T07:31:23.107Z,433.12
2022-08-06T07:32:31.911Z,450.00
2022-08-06T07:33:23.723Z,489.38
2022-08-06T07:34:23.163Z,483.75
2022-08-06T07:35:23.054Z,500.62
2022-08-06T07:36:23.044Z,500.62
2022-08-06T07:37:23.055Z,489.38
2022-08-06T07:38:23.012Z,427.50
2022-08-06T07:39:23.042Z,388.12
2022-08-06T07:40:23.413Z,360.00
2022-08-06T07:41:31.351Z,354.38
2022-08-06T07:42:22.981Z,354.38
2022-08-06T07:43:24.468Z,343.12
2022-08-06T07:44:28.976Z,343.12
2022-08-06T07:45:22.957Z,371.25
2022-08-06T07:46:22.975Z,410.62
2022-08-06T07:47:23.828Z,393.75
2022-08-06T07:48:22.936Z,382.50
2022-08-06T07:49:22.909Z,360.00
2022-08-06T07:50:23.945Z,360.00
2022-08-06T07:51:22.894Z,376.88
2022-08-06T07:52:26.797Z,382.50
2022-08-06T07:53:22.843Z,393.75
2022-08-06T07:54:33.615Z,354.38
2022-08-06T07:55:22.848Z,348.75
2022-08-06T07:56:22.869Z,348.75
2022-08-06T07:57:25.533Z,331.88
2022-08-06T07:58:23.330Z,331.88
2022-08-06T07:59:22.791Z,320.62
2022-08-06T08:00:22.813Z,320.62
2022-08-06T08:01:25.447Z,326.25
2022-08-06T08:02:29.512Z,343.12
2022-08-06T08:03:56.889Z,348.75
2022-08-06T08:04:34.484Z,354.38
2022-08-06T08:05:26.341Z,348.75
2022-08-06T08:06:22.703Z,337.50
2022-08-06T08:07:37.232Z,315.00
2022-08-06T08:08:22.683Z,315.00
2022-08-06T08:09:29.169Z,309.38
2022-08-06T08:10:28.575Z,309.38
2022-08-06T08:12:16.209Z,303.75
2022-08-06T08:12:35.224Z,309.38
2022-08-06T08:13:41.013Z,298.12
2022-08-06T08:14:22.621Z,286.88
2022-08-06T08:15:23.351Z,281.25
2022-08-06T08:16:28.348Z,286.88
2022-08-06T08:17:29.783Z,309.38
2022-08-06T08:18:22.684Z,331.88
2022-08-06T08:19:22.595Z,303.75
2022-08-06T08:20:22.622Z,298.12
2022-08-06T08:21:22.575Z,286.88
2022-08-06T08:22:24.102Z,286.88
2022-08-06T08:23:25.790Z,281.25
2022-08-06T08:24:22.633Z,292.50
2022-08-06T08:25:42.975Z,292.50
2022-08-06T08:26:25.100Z,298.12
2022-08-06T08:27:37.274Z,303.75
2022-08-06T08:28:22.539Z,303.75
2022-08-06T08:29:28.293Z,303.75
2022-08-06T08:30:22.444Z,315.00
2022-08-06T08:31:26.582Z,315.00
2022-08-06T08:32:22.408Z,320.62
2022-08-06T08:33:22.394Z,320.62
2022-08-06T08:34:22.431Z,309.38
2022-08-06T08:35:22.381Z,320.62
2022-08-06T08:36:30.469Z,343.12
2022-08-06T08:37:22.357Z,343.12
2022-08-06T08:38:22.378Z,343.12
2022-08-06T08:39:24.390Z,331.88
2022-08-06T08:40:22.393Z,348.75
2022-08-06T08:41:22.750Z,382.50
2022-08-06T08:42:31.505Z,399.38
2022-08-06T08:43:22.553Z,405.00
2022-08-06T08:44:26.491Z,405.00
2022-08-06T08:45:22.255Z,376.88
2022-08-06T08:46:31.072Z,371.25
2022-08-06T08:47:22.240Z,376.88
2022-08-06T08:48:22.327Z,371.25
2022-08-06T08:49:23.017Z,410.62
2022-08-06T08:50:22.215Z,405.00
2022-08-06T08:51:22.452Z,393.75
2022-08-06T08:52:22.235Z,416.25
2022-08-06T08:53:46.250Z,427.50
2022-08-06T08:54:22.166Z,393.75
2022-08-06T08:57:05.903Z,371.25
2022-08-06T08:58:40.017Z,405.00
2022-08-06T08:59:01.993Z,466.88
2022-08-06T08:59:57.067Z,444.38
2022-08-06T09:00:10.800Z,382.50
2022-08-06T09:00:58.562Z,326.25
2022-08-06T09:01:58.621Z,315.00
2022-08-06T09:02:58.590Z,309.38
2022-08-06T09:03:58.568Z,309.38
2022-08-06T09:04:59.015Z,343.12
2022-08-06T09:06:01.328Z,320.62
2022-08-06T09:06:58.466Z,309.38
2022-08-06T09:08:01.555Z,315.00
2022-08-06T09:09:02.556Z,320.62
2022-08-06T09:10:01.047Z,354.38
2022-08-06T09:10:58.424Z,360.00
2022-08-06T09:12:03.780Z,320.62
2022-08-06T09:12:58.396Z,303.75
2022-08-06T09:14:00.855Z,303.75
2022-08-06T09:14:58.364Z,303.75
2022-08-06T09:15:59.212Z,309.38
2022-08-06T09:16:58.346Z,315.00
2022-08-06T09:18:12.005Z,320.62
2022-08-06T09:18:58.365Z,337.50
2022-08-06T09:19:58.341Z,348.75
2022-08-06T09:20:58.565Z,326.25
2022-08-06T09:21:59.222Z,298.12
2022-08-06T09:22:58.278Z,292.50
2022-08-06T09:23:58.724Z,292.50
2022-08-06T09:24:59.084Z,298.12
2022-08-06T09:25:58.991Z,292.50
2022-08-06T09:27:32.015Z,286.88
2022-08-06T09:27:59.242Z,286.88
2022-08-06T09:28:58.241Z,292.50
2022-08-06T09:30:03.835Z,298.12
2022-08-06T09:30:58.205Z,292.50
2022-08-06T09:31:58.182Z,292.50
2022-08-06T09:33:03.953Z,292.50
2022-08-06T09:34:38.712Z,292.50
2022-08-06T09:34:58.170Z,292.50
2022-08-06T09:35:58.134Z,286.88
2022-08-06T09:36:59.358Z,286.88
2022-08-06T09:37:58.106Z,286.88
2022-08-06T09:38:58.151Z,286.88
2022-08-06T09:40:05.988Z,286.88
2022-08-06T09:40:58.086Z,286.88
2022-08-06T09:41:58.059Z,286.88
2022-08-06T09:42:58.056Z,286.88
2022-08-06T09:44:03.977Z,286.88
2022-08-06T09:44:58.023Z,286.88
2022-08-06T09:46:00.116Z,292.50
2022-08-06T09:46:58.032Z,292.50
2022-08-06T09:48:01.413Z,292.50
2022-08-06T09:49:45.127Z,292.50
2022-08-06T09:50:00.593Z,292.50
2022-08-06T09:50:57.959Z,292.50
2022-08-06T09:51:58.036Z,292.50
2022-08-06T09:52:57.938Z,292.50
2022-08-06T09:54:09.076Z,292.50
2022-08-06T09:54:57.935Z,292.50
2022-08-06T09:55:58.358Z,292.50
2022-08-06T09:56:57.914Z,292.50
2022-08-06T09:57:57.941Z,292.50
2022-08-06T09:58:57.876Z,298.12
2022-08-06T09:59:57.879Z,298.12
2022-08-06T10:00:57.884Z,298.12
2022-08-06T10:01:58.268Z,298.12
2022-08-06T10:02:57.830Z,298.12
2022-08-06T10:04:03.117Z,298.12
2022-08-06T10:04:57.930Z,298.12
2022-08-06T10:05:57.788Z,298.12
2022-08-06T10:06:57.837Z,298.12
2022-08-06T10:07:57.788Z,298.12
2022-08-06T10:08:58.052Z,298.12
2022-08-06T10:09:57.796Z,303.75
2022-08-06T10:11:00.515Z,303.75
2022-08-06T10:11:58.762Z,309.38
2022-08-06T10:12:57.724Z,309.38
2022-08-06T10:13:57.707Z,309.38
2022-08-06T10:14:57.704Z,315.00
2022-08-06T10:16:00.674Z,315.00
2022-08-06T10:16:57.688Z,315.00
2022-08-06T10:17:57.654Z,315.00
2022-08-06T10:19:00.122Z,315.00
2022-08-06T10:19:57.984Z,315.00
2022-08-06T10:20:57.649Z,315.00
2022-08-06T10:21:57.676Z,315.00
2022-08-06T10:22:58.202Z,320.62
2022-08-06T10:23:58.626Z,320.62
2022-08-06T10:24:57.687Z,320.62
2022-08-06T10:25:57.596Z,320.62
2022-08-06T10:26:57.586Z,320.62
2022-08-06T10:27:57.607Z,320.62
2022-08-06T10:28:57.529Z,326.25
2022-08-06T10:29:59.204Z,326.25
2022-08-06T10:30:57.535Z,326.25
2022-08-06T10:31:57.515Z,326.25
2022-08-06T10:32:58.910Z,326.25
2022-08-06T10:33:57.531Z,326.25
2022-08-06T10:34:57.490Z,331.88
2022-08-06T10:35:57.485Z,331.88
2022-08-06T10:36:58.763Z,331.88
2022-08-06T10:37:57.541Z,326.25
2022-08-06T10:38:57.507Z,326.25
2022-08-06T10:40:07.514Z,337.50
2022-08-06T10:41:01.303Z,337.50
2022-08-06T10:42:01.392Z,343.12
2022-08-06T10:42:57.405Z,343.12
2022-08-06T10:43:57.688Z,348.75
2022-08-06T10:44:57.404Z,348.75
2022-08-06T10:45:57.423Z,348.75
2022-08-06T10:46:57.376Z,348.75
2022-08-06T10:49:00.718Z,348.75
2022-08-06T10:50:38.497Z,348.75
2022-08-06T10:50:55.515Z,354.38
2022-08-06T10:51:53.411Z,360.00
2022-08-06T10:52:38.211Z,376.88
2022-08-06T10:54:01.645Z,365.62
2022-08-06T10:54:38.161Z,365.62
2022-08-06T10:55:44.323Z,376.88
2022-08-06T10:56:44.265Z,388.12
2022-08-06T10:57:38.242Z,399.38
2022-08-06T10:58:38.106Z,410.62
2022-08-06T10:59:41.071Z,416.25
2022-08-06T11:00:38.093Z,421.88
2022-08-06T11:01:43.938Z,393.75
2022-08-06T11:02:38.086Z,382.50
2022-08-06T11:03:38.205Z,371.25
2022-08-06T11:04:38.039Z,376.88
2022-08-06T11:05:53.079Z,376.88
2022-08-06T11:06:38.030Z,382.50
2022-08-06T11:08:09.491Z,388.12
2022-08-06T11:08:42.517Z,393.75
2022-08-06T11:10:01.532Z,393.75
2022-08-06T11:10:37.973Z,410.62
2022-08-06T11:11:39.354Z,450.00
2022-08-06T11:12:37.954Z,478.12
2022-08-06T11:13:53.815Z,399.38
2022-08-06T11:14:38.336Z,382.50
2022-08-06T11:15:38.265Z,421.88
2022-08-06T11:16:37.895Z,506.25
2022-08-06T11:17:40.068Z,540.00
2022-08-06T11:18:37.907Z,545.62
2022-08-06T11:19:46.430Z,551.25
2022-08-06T11:20:37.884Z,495.00
2022-08-06T11:21:58.922Z,405.00
2022-08-06T11:22:38.873Z,393.75
2022-08-06T11:23:58.960Z,427.50
2022-08-06T11:24:38.616Z,461.25
2022-08-06T11:25:37.830Z,483.75
2022-08-06T11:26:39.110Z,517.50
2022-08-06T11:27:48.611Z,556.88
2022-08-06T11:28:37.784Z,601.88
2022-08-06T11:29:55.702Z,613.12
2022-08-06T11:30:37.741Z,585.00
2022-08-06T11:31:37.732Z,517.50
2022-08-06T11:32:37.734Z,489.38
2022-08-06T11:33:38.723Z,489.38
2022-08-06T11:34:37.700Z,528.75
2022-08-06T11:35:51.578Z,590.62
2022-08-06T11:36:37.749Z,646.88
2022-08-06T11:38:03.787Z,585.00
2022-08-06T11:38:37.678Z,506.25
2022-08-06T11:39:47.625Z,489.38
2022-08-06T11:40:37.660Z,461.25
2022-08-06T11:41:50.331Z,461.25
2022-08-06T11:42:37.607Z,455.62
2022-08-06T11:43:39.433Z,450.00
2022-08-06T11:44:37.595Z,450.00
2022-08-06T11:46:22.011Z,450.00
2022-08-06T11:46:39.668Z,455.62
2022-08-06T11:47:38.520Z,466.88
2022-08-06T11:48:37.539Z,466.88
2022-08-06T11:49:43.892Z,466.88
2022-08-06T11:50:38.128Z,461.25
2022-08-06T11:51:42.515Z,461.25
2022-08-06T11:52:40.056Z,461.25
2022-08-06T11:53:46.338Z,455.62
2022-08-06T11:54:39.130Z,455.62
2022-08-06T11:55:39.467Z,461.25
2022-08-06T11:56:37.483Z,472.50
2022-08-06T11:57:41.089Z,478.12
2022-08-06T11:58:37.431Z,478.12
2022-08-06T11:59:37.823Z,461.25
2022-08-06T12:00:37.501Z,455.62
2022-08-06T12:01:37.470Z,455.62
2022-08-06T12:02:37.486Z,455.62
2022-08-06T12:03:44.251Z,461.25
2022-08-06T12:04:37.409Z,461.25
2022-08-06T12:05:37.583Z,455.62
2022-08-06T12:06:37.326Z,450.00
2022-08-06T12:07:37.621Z,450.00
2022-08-06T12:08:41.823Z,455.62
2022-08-06T12:09:39.684Z,455.62
2022-08-06T12:10:37.293Z,461.25
2022-08-06T12:11:38.574Z,466.88
2022-08-06T12:12:37.432Z,466.88
2022-08-06T12:13:53.016Z,472.50
2022-08-06T12:14:37.348Z,472.50
2022-08-06T12:15:59.060Z,472.50
2022-08-06T12:16:37.262Z,483.75
2022-08-06T12:17:45.655Z,483.75
2022-08-06T12:18:37.233Z,489.38
2022-08-06T12:19:37.231Z,495.00
2022-08-06T12:20:46.047Z,506.25
2022-08-06T12:21:44.694Z,506.25
2022-08-06T12:22:37.160Z,483.75
2022-08-06T12:23:56.047Z,478.12
2022-08-06T12:24:58.270Z,483.75
2022-08-06T12:25:37.170Z,495.00
2022-08-06T12:26:37.092Z,506.25
2022-08-06T12:27:37.126Z,506.25
2022-08-06T12:28:37.139Z,506.25
2022-08-06T12:29:43.059Z,506.25
2022-08-06T12:30:38.183Z,500.62
2022-08-06T12:31:43.993Z,506.25
2022-08-06T12:32:56.738Z,517.50
2022-08-06T12:33:37.129Z,534.38
2022-08-06T12:34:37.044Z,545.62
2022-08-06T12:35:36.987Z,562.50
2022-08-06T12:36:37.102Z,1209.38
2022-08-06T12:37:41.523Z,2998.12
2022-08-06T12:38:36.996Z,3690.00
2022-08-06T12:39:43.133Z,3796.88
2022-08-06T12:40:38.144Z,3903.75
2022-08-06T12:41:45.975Z,3819.38
2022-08-06T12:42:54.216Z,3656.25
2022-08-06T12:43:46.377Z,3763.12